createdAt,value
2022-09-03T00:00:10.469Z,615.1
2022-09-03T00:01:12.665Z,614.9
2022-09-03T00:02:14.748Z,615.2
2022-09-03T00:03:17.230Z,615.2
2022-09-03T00:05:24.166Z,615.3
2022-09-03T00:06:26.628Z,614.9
2022-09-03T00:07:28.829Z,615.3
2022-09-03T00:08:31.177Z,615.1
2022-09-03T00:09:33.652Z,614.8
2022-09-03T00:10:36.868Z,615.3
2022-09-03T00:11:39.528Z,614.9
2022-09-03T00:12:41.996Z,615.2
2022-09-03T00:13:46.117Z,614.8
2022-09-03T00:14:48.583Z,614.7
2022-09-03T00:15:51.427Z,615
2022-09-03T00:16:53.629Z,615.1
2022-09-03T00:17:55.572Z,615.3
2022-09-03T00:18:58.035Z,615.3
2022-09-03T00:20:00.512Z,615.5
2022-09-03T00:21:02.981Z,614.9
2022-09-03T00:22:05.178Z,615.3
2022-09-03T00:23:07.377Z,615.4
2022-09-03T00:25:14.605Z,615.4
2022-09-03T00:26:17.082Z,615.7
2022-09-03T00:27:19.299Z,615.5
2022-09-03T00:28:21.953Z,615.9
2022-09-03T00:29:24.462Z,616
2022-09-03T00:30:26.936Z,615.9
2022-09-03T00:31:29.894Z,615.8
2022-09-03T00:32:32.098Z,616.3
2022-09-03T00:33:34.279Z,615.7
2022-09-03T00:34:36.747Z,615.9
2022-09-03T00:35:39.229Z,615.9
2022-09-03T00:36:41.706Z,616.4
2022-09-03T00:37:46.344Z,616.6
2022-09-03T00:38:48.263Z,617.5
2022-09-03T00:39:50.541Z,617.1
2022-09-03T00:40:52.781Z,617.6
2022-09-03T00:41:55.257Z,617.6
2022-09-03T00:42:57.154Z,617.1
2022-09-03T00:43:59.625Z,617.2
2022-09-03T00:45:01.557Z,616.9
2022-09-03T00:46:04.336Z,616
2022-09-03T00:47:06.822Z,616.4
2022-09-03T00:48:08.744Z,615.9
2022-09-03T00:49:11.209Z,615.6
2022-09-03T00:50:13.684Z,615.4
2022-09-03T00:51:16.168Z,615.5
2022-09-03T00:53:24.663Z,616.3
2022-09-03T00:54:26.855Z,616.4
2022-09-03T00:55:29.333Z,616.1
2022-09-03T00:56:31.534Z,616.1
2022-09-03T00:57:33.746Z,615.8
2022-09-03T00:58:36.221Z,615.6
2022-09-03T00:59:38.696Z,615.5
2022-09-03T01:00:40.927Z,615.3
2022-09-03T01:01:44.118Z,615.1
2022-09-03T01:02:47.697Z,615.5
2022-09-03T01:03:49.959Z,615.2
2022-09-03T01:04:52.160Z,615.4
2022-09-03T01:07:01.954Z,615.7
2022-09-03T01:08:04.127Z,615.9
2022-09-03T01:09:06.615Z,616.3
2022-09-03T01:10:09.084Z,616
2022-09-03T01:11:11.547Z,615.9
2022-09-03T01:12:13.723Z,614.9
2022-09-03T01:13:15.925Z,615.2
2022-09-03T01:14:18.401Z,615.1
2022-09-03T01:15:20.874Z,615.1
2022-09-03T01:16:23.713Z,614.6
2022-09-03T01:17:25.939Z,614.7
2022-09-03T01:18:28.140Z,614.8
2022-09-03T01:19:30.342Z,615
2022-09-03T01:20:32.525Z,615.2
2022-09-03T01:21:34.708Z,615.3
2022-09-03T01:22:36.909Z,615.6
2022-09-03T01:23:39.120Z,615.4
2022-09-03T01:24:41.321Z,615.6
2022-09-03T01:25:43.262Z,615.8
2022-09-03T01:26:45.735Z,615.8
2022-09-03T01:27:48.222Z,616
2022-09-03T01:28:50.406Z,615.9
2022-09-03T01:29:52.894Z,615.8
2022-09-03T01:30:55.385Z,615.9
2022-09-03T01:31:57.580Z,615.7
2022-09-03T01:32:59.781Z,616
2022-09-03T01:34:02.265Z,616.2
2022-09-03T01:35:04.462Z,615.8
2022-09-03T01:36:06.951Z,616.6
2022-09-03T01:37:09.149Z,617.1
2022-09-03T01:38:11.620Z,616.8
2022-09-03T01:39:14.089Z,617
2022-09-03T01:40:16.562Z,616.7
2022-09-03T01:41:19.048Z,617
2022-09-03T01:42:23.019Z,616.6
2022-09-03T01:43:25.195Z,616.7
2022-09-03T01:44:27.667Z,617.5
2022-09-03T01:45:30.144Z,617.5
2022-09-03T01:46:33.593Z,617.4
2022-09-03T01:47:36.082Z,617.5
2022-09-03T01:48:38.301Z,617.2
2022-09-03T01:49:40.770Z,616.6
2022-09-03T01:50:43.239Z,616.1
2022-09-03T01:51:45.451Z,616.6
2022-09-03T01:52:48.284Z,616.3
2022-09-03T01:53:50.481Z,616.1
2022-09-03T01:54:52.682Z,616.3
2022-09-03T01:55:55.160Z,617
2022-09-03T01:56:58.043Z,616.6
2022-09-03T01:57:59.978Z,616.6
2022-09-03T01:59:02.445Z,616.2
2022-09-03T02:00:05.802Z,616.5
2022-09-03T02:01:08.643Z,616.5
2022-09-03T02:02:11.622Z,616.9
2022-09-03T02:03:14.103Z,617.3
2022-09-03T02:04:16.588Z,617.5
2022-09-03T02:05:18.776Z,616.7
2022-09-03T02:06:20.975Z,617
2022-09-03T02:07:23.154Z,617.5
2022-09-03T02:08:27.014Z,617.6
2022-09-03T02:10:33.948Z,617.9
2022-09-03T02:11:36.415Z,617.5
2022-09-03T02:12:39.066Z,617.6
2022-09-03T02:13:41.263Z,617.8
2022-09-03T02:14:43.731Z,617.4
2022-09-03T02:15:46.617Z,617.8
2022-09-03T02:16:48.311Z,617.9
2022-09-03T02:17:49.934Z,617.9
2022-09-03T02:18:52.130Z,618.5
2022-09-03T02:19:54.801Z,618.3
2022-09-03T02:20:57.282Z,618
2022-09-03T02:21:59.755Z,617.9
2022-09-03T02:23:02.231Z,617.2
2022-09-03T02:24:04.701Z,617
2022-09-03T02:25:07.172Z,616.8
2022-09-03T02:26:09.657Z,616.3
2022-09-03T02:27:12.126Z,616.2
2022-09-03T02:29:19.336Z,616.3
2022-09-03T02:30:21.810Z,616.6
2022-09-03T02:31:24.621Z,616.3
2022-09-03T02:32:27.142Z,616.2
2022-09-03T02:33:29.611Z,616.4
2022-09-03T02:34:31.802Z,617.1
2022-09-03T02:35:34.282Z,616.4
2022-09-03T02:36:36.749Z,616.5
2022-09-03T02:37:39.246Z,616
2022-09-03T02:38:42.947Z,616.4
2022-09-03T02:39:45.799Z,616.5
2022-09-03T02:40:48.054Z,616.5
2022-09-03T02:41:50.526Z,616.3
2022-09-03T02:42:52.697Z,616.4
2022-09-03T02:43:54.908Z,616.4
2022-09-03T02:44:57.961Z,616.2
2022-09-03T02:46:00.866Z,616
2022-09-03T02:47:03.081Z,616
2022-09-03T02:48:05.590Z,616.4
2022-09-03T02:49:07.511Z,616.3
2022-09-03T02:50:09.989Z,616.4
2022-09-03T02:52:17.459Z,616.8
2022-09-03T02:53:19.652Z,617.1
2022-09-03T02:54:23.205Z,617.1
2022-09-03T02:55:25.412Z,616.9
2022-09-03T02:56:27.883Z,617.5
2022-09-03T02:57:30.089Z,617.4
2022-09-03T02:58:32.588Z,616.9
2022-09-03T02:59:35.055Z,617.3
2022-09-03T03:00:37.541Z,616.6
2022-09-03T03:02:45.000Z,617.1
2022-09-03T03:03:47.469Z,617.2
2022-09-03T03:04:49.955Z,617.3
2022-09-03T03:05:52.439Z,617
2022-09-03T03:06:54.636Z,617.7
2022-09-03T03:09:03.074Z,617.7
2022-09-03T03:10:05.550Z,617.2
2022-09-03T03:11:07.728Z,617.6
2022-09-03T03:12:10.206Z,618
2022-09-03T03:13:12.687Z,618
2022-09-03T03:14:15.250Z,617.9
2022-09-03T03:15:17.203Z,617.6
2022-09-03T03:16:20.011Z,618
2022-09-03T03:17:22.515Z,618
2022-09-03T03:18:26.000Z,618
2022-09-03T03:19:28.616Z,617.8
2022-09-03T03:20:32.051Z,617.5
2022-09-03T03:21:34.262Z,617.7
2022-09-03T03:22:36.731Z,617.3
2022-09-03T03:23:39.203Z,617.5
2022-09-03T03:24:41.442Z,617.7
2022-09-03T03:25:43.917Z,618.1
2022-09-03T03:26:46.392Z,617.9
2022-09-03T03:27:48.875Z,617.4
2022-09-03T03:28:51.346Z,617.3
2022-09-03T03:29:54.900Z,616.9
2022-09-03T03:30:57.515Z,616.9
2022-09-03T03:31:59.471Z,617.1
2022-09-03T03:33:01.980Z,616.9
2022-09-03T03:34:03.936Z,616.3
2022-09-03T03:35:06.411Z,616.2
2022-09-03T03:36:08.908Z,616.1
2022-09-03T03:37:11.395Z,616.3
2022-09-03T03:38:13.600Z,616.2
2022-09-03T03:39:16.105Z,616
2022-09-03T03:40:18.639Z,615.9
2022-09-03T03:41:21.138Z,615.7
2022-09-03T03:42:23.604Z,616
2022-09-03T03:43:26.090Z,615.8
2022-09-03T03:44:28.269Z,615.8
2022-09-03T03:45:30.240Z,616.1
2022-09-03T03:46:32.728Z,615.7
2022-09-03T03:47:35.214Z,616.2
2022-09-03T03:48:37.679Z,615.9
2022-09-03T03:49:39.592Z,616.1
2022-09-03T03:50:43.036Z,615.9
2022-09-03T03:51:45.257Z,616
2022-09-03T03:52:47.736Z,616
2022-09-03T03:53:49.954Z,616
2022-09-03T03:55:58.827Z,615.9
2022-09-03T03:57:00.760Z,616
2022-09-03T03:58:03.435Z,616.2
2022-09-03T03:59:05.873Z,616.5
2022-09-03T04:00:08.377Z,616.7
2022-09-03T04:01:11.334Z,616.6
2022-09-03T04:02:14.251Z,617
2022-09-03T04:03:16.738Z,616.9
2022-09-03T04:04:18.937Z,617
2022-09-03T04:06:25.843Z,617.1
2022-09-03T04:07:28.324Z,617
2022-09-03T04:08:30.545Z,617.1
2022-09-03T04:09:32.447Z,616.8
2022-09-03T04:10:34.916Z,616.9
2022-09-03T04:11:37.113Z,616.9
2022-09-03T04:12:39.318Z,617.1
2022-09-03T04:13:40.983Z,616.6
2022-09-03T04:14:43.449Z,616.4
2022-09-03T04:15:45.936Z,616.4
2022-09-03T04:16:48.847Z,616.4
2022-09-03T04:17:51.341Z,616.2
2022-09-03T04:18:53.828Z,616.4
2022-09-03T04:19:55.739Z,616.1
2022-09-03T04:20:58.211Z,616.5
2022-09-03T04:22:01.513Z,616.7
2022-09-03T04:23:03.989Z,616.4
2022-09-03T04:24:05.910Z,616.2
2022-09-03T04:25:08.437Z,616
2022-09-03T04:26:10.905Z,616.1
2022-09-03T04:27:13.409Z,616
2022-09-03T04:28:16.004Z,616.2
2022-09-03T04:29:18.490Z,616.2
2022-09-03T04:30:23.720Z,616.1
2022-09-03T04:31:26.186Z,615.4
2022-09-03T04:32:28.373Z,615.5
2022-09-03T04:33:30.609Z,615.5
2022-09-03T04:34:33.075Z,615.5
2022-09-03T04:35:38.549Z,615.7
2022-09-03T04:36:40.743Z,615.2
2022-09-03T04:37:42.922Z,615.2
2022-09-03T04:38:45.394Z,615.2
2022-09-03T04:39:47.897Z,615
2022-09-03T04:40:50.106Z,615
2022-09-03T04:41:52.012Z,614.7
2022-09-03T04:42:54.217Z,614.5
2022-09-03T04:43:56.693Z,614.4
2022-09-03T04:44:59.163Z,614.4
2022-09-03T04:46:01.938Z,614.5
2022-09-03T04:47:04.133Z,614.3
2022-09-03T04:48:06.606Z,614
2022-09-03T04:49:09.083Z,613.8
2022-09-03T04:50:11.013Z,614
2022-09-03T04:51:13.492Z,613.5
2022-09-03T04:52:15.959Z,613.7
2022-09-03T04:53:18.150Z,613.5
2022-09-03T04:54:20.635Z,613.2
2022-09-03T04:55:22.545Z,613
2022-09-03T04:56:24.745Z,613.1
2022-09-03T04:57:27.209Z,613.1
2022-09-03T04:58:29.134Z,613.2
2022-09-03T04:59:31.606Z,613
2022-09-03T05:00:33.783Z,612.6
2022-09-03T05:01:36.433Z,612.8
2022-09-03T05:02:40.186Z,613
2022-09-03T05:03:42.691Z,612.6
2022-09-03T05:04:45.168Z,612.9
2022-09-03T05:06:52.362Z,612.5
2022-09-03T05:07:54.832Z,612
2022-09-03T05:08:57.223Z,612
2022-09-03T05:09:59.155Z,611.9
2022-09-03T05:11:01.630Z,611.5
2022-09-03T05:12:03.832Z,611.4
2022-09-03T05:13:06.681Z,611.4
2022-09-03T05:14:08.850Z,611.3
2022-09-03T05:15:11.055Z,611.5
2022-09-03T05:16:14.040Z,611.7
2022-09-03T05:17:16.539Z,611.1
2022-09-03T05:18:19.128Z,610.9
2022-09-03T05:19:21.596Z,611
2022-09-03T05:20:23.955Z,610.7
2022-09-03T05:21:26.490Z,610.8
2022-09-03T05:22:28.984Z,610.1
2022-09-03T05:24:37.331Z,609.5
2022-09-03T05:25:39.527Z,609.6
2022-09-03T05:26:41.738Z,609.1
2022-09-03T05:27:43.939Z,609.2
2022-09-03T05:28:46.418Z,609.3
2022-09-03T05:29:48.888Z,609.5
2022-09-03T05:30:51.368Z,609.7
2022-09-03T05:31:54.203Z,610.1
2022-09-03T05:32:56.420Z,610.3
2022-09-03T05:33:58.711Z,610.4
2022-09-03T05:35:00.917Z,610.8
2022-09-03T05:36:03.122Z,610.7
2022-09-03T05:37:05.339Z,610.7
2022-09-03T05:38:07.833Z,610.6
2022-09-03T05:39:10.308Z,610.5
2022-09-03T05:40:12.510Z,611.1
2022-09-03T05:41:14.725Z,611.1
2022-09-03T05:42:16.918Z,611
2022-09-03T05:43:19.392Z,610.4
2022-09-03T05:44:21.858Z,610.9
2022-09-03T05:45:24.338Z,610.7
2022-09-03T05:46:26.824Z,610.8
2022-09-03T05:47:29.053Z,610.8
2022-09-03T05:48:31.251Z,610.4
2022-09-03T05:49:33.448Z,610.5
2022-09-03T05:50:35.929Z,610.2
2022-09-03T05:51:38.412Z,609.9
2022-09-03T05:52:40.902Z,609.8
2022-09-03T05:53:43.114Z,610.4
2022-09-03T05:54:45.330Z,610.4
2022-09-03T05:55:47.810Z,609.9
2022-09-03T05:56:50.025Z,609.7
2022-09-03T05:57:52.226Z,609.6
2022-09-03T05:58:53.868Z,609.8
2022-09-03T05:59:57.272Z,609.6
2022-09-03T06:00:59.776Z,609.4
2022-09-03T06:02:03.050Z,609
2022-09-03T06:03:05.614Z,608.7
2022-09-03T06:04:08.143Z,608.8
2022-09-03T06:05:10.634Z,608.7
2022-09-03T06:06:12.858Z,608.8
2022-09-03T06:07:14.796Z,608.7
2022-09-03T06:08:17.007Z,608.8
2022-09-03T06:09:19.514Z,608.7
2022-09-03T06:11:26.738Z,609.3
2022-09-03T06:12:28.951Z,609.3
2022-09-03T06:13:31.175Z,609.2
2022-09-03T06:14:33.416Z,609.6
2022-09-03T06:15:36.007Z,609.7
2022-09-03T06:16:39.380Z,609.8
2022-09-03T06:17:44.066Z,609.4
2022-09-03T06:18:45.702Z,609.4
2022-09-03T06:19:48.195Z,609
2022-09-03T06:20:49.837Z,608.8
2022-09-03T06:21:51.759Z,608.4
2022-09-03T06:22:54.258Z,608.5
2022-09-03T06:25:03.229Z,608.4
2022-09-03T06:26:06.944Z,608.6
2022-09-03T06:27:09.789Z,608.8
2022-09-03T06:28:12.268Z,608.6
2022-09-03T06:29:14.762Z,608.1
2022-09-03T06:30:16.962Z,607.3
2022-09-03T06:31:19.778Z,607.4
2022-09-03T06:32:22.293Z,607.9
2022-09-03T06:33:24.964Z,607.2
2022-09-03T06:34:26.944Z,607.3
2022-09-03T06:36:33.879Z,607.5
2022-09-03T06:37:36.089Z,606.9
2022-09-03T06:38:38.585Z,607
2022-09-03T06:39:41.022Z,606.8
2022-09-03T06:40:43.300Z,606
2022-09-03T06:41:45.772Z,606
2022-09-03T06:42:48.334Z,605.9
2022-09-03T06:43:50.533Z,605.6
2022-09-03T06:44:52.730Z,605.4
2022-09-03T06:45:55.285Z,605.7
2022-09-03T06:46:57.811Z,605.8
2022-09-03T06:48:00.308Z,605.9
2022-09-03T06:49:02.798Z,605.5
2022-09-03T06:50:05.056Z,605.6
2022-09-03T06:51:07.267Z,605.4
2022-09-03T06:52:09.496Z,605.6
2022-09-03T06:53:11.468Z,606
2022-09-03T06:54:13.956Z,606.1
2022-09-03T06:55:16.254Z,606.2
2022-09-03T06:56:18.798Z,606.1
2022-09-03T06:57:21.012Z,606
2022-09-03T06:58:23.917Z,606.1
2022-09-03T06:59:27.388Z,606
2022-09-03T07:01:35.148Z,605.7
2022-09-03T07:02:38.918Z,605.8
2022-09-03T07:03:43.836Z,605.4
2022-09-03T07:05:52.032Z,605.2
2022-09-03T07:06:54.256Z,605.3
2022-09-03T07:07:56.173Z,605.1
2022-09-03T07:08:58.651Z,604.9
2022-09-03T07:10:00.577Z,604.9
2022-09-03T07:11:02.782Z,604.9
2022-09-03T07:12:05.276Z,605
2022-09-03T07:13:07.498Z,605.1
2022-09-03T07:14:09.711Z,605.2
2022-09-03T07:15:15.861Z,605.1
2022-09-03T07:16:18.516Z,605.2
2022-09-03T07:17:21.055Z,605.3
2022-09-03T07:18:23.397Z,605.1
2022-09-03T07:19:25.894Z,605.6
2022-09-03T07:20:28.384Z,605.4
2022-09-03T07:21:30.901Z,605.1
2022-09-03T07:22:33.444Z,605.1
2022-09-03T07:23:35.648Z,605.3
2022-09-03T07:24:37.572Z,605.3
2022-09-03T07:25:40.136Z,605.5
2022-09-03T07:26:42.633Z,605.5
2022-09-03T07:27:44.852Z,606
2022-09-03T07:28:47.096Z,605.6
2022-09-03T07:29:48.769Z,605.7
2022-09-03T07:30:50.701Z,605.5
2022-09-03T07:31:54.599Z,605.8
2022-09-03T07:32:57.769Z,605.6
2022-09-03T07:34:01.037Z,606
2022-09-03T07:35:03.249Z,605.8
2022-09-03T07:36:06.517Z,605.4
2022-09-03T07:37:09.546Z,605.5
2022-09-03T07:38:12.030Z,605.1
2022-09-03T07:39:13.977Z,605.7
2022-09-03T07:40:16.193Z,605.6
2022-09-03T07:42:23.118Z,605.8
2022-09-03T07:43:25.598Z,605.6
2022-09-03T07:44:27.530Z,605.8
2022-09-03T07:45:29.457Z,605.8
2022-09-03T07:46:31.957Z,605.2
2022-09-03T07:47:33.876Z,605.4
2022-09-03T07:49:41.080Z,605
2022-09-03T07:50:43.560Z,604.9
2022-09-03T07:51:45.501Z,605.1
2022-09-03T07:52:47.993Z,604.9
2022-09-03T07:53:50.507Z,604.9
2022-09-03T07:54:53.003Z,605.1
2022-09-03T07:55:55.527Z,604.8
2022-09-03T07:56:59.070Z,605
2022-09-03T07:58:01.010Z,604.9
2022-09-03T07:59:03.494Z,605.1
2022-09-03T08:00:05.966Z,605.1
2022-09-03T08:02:14.161Z,605.1
2022-09-03T08:03:16.358Z,605
2022-09-03T08:04:18.586Z,605
2022-09-03T08:05:20.774Z,605.2
2022-09-03T08:06:22.959Z,605
2022-09-03T08:09:36.084Z,604.9
2022-09-03T08:10:38.552Z,604.9
2022-09-03T08:11:40.783Z,604.6
2022-09-03T08:12:43.018Z,604.5
2022-09-03T08:13:45.497Z,604.3
2022-09-03T08:14:47.975Z,604.3
2022-09-03T08:15:50.402Z,604.1
2022-09-03T08:16:52.912Z,604.1
2022-09-03T08:19:00.598Z,604.2
2022-09-03T08:20:02.798Z,604.2
2022-09-03T08:21:05.288Z,604.3
2022-09-03T08:22:07.756Z,604.4
2022-09-03T08:23:10.286Z,604.4
2022-09-03T08:24:12.538Z,604.6
2022-09-03T08:25:15.603Z,604.4
2022-09-03T08:26:17.776Z,604.1
2022-09-03T08:27:20.263Z,604.3
2022-09-03T08:28:22.828Z,604.2
2022-09-03T08:29:25.308Z,603.9
2022-09-03T08:30:27.800Z,604.6
2022-09-03T08:31:30.791Z,604.4
2022-09-03T08:32:33.017Z,604.2
2022-09-03T08:33:35.496Z,604.4
2022-09-03T08:34:37.692Z,604.4
2022-09-03T08:35:39.898Z,604.4
2022-09-03T08:36:41.859Z,604.2
2022-09-03T08:37:44.359Z,604.9
2022-09-03T08:38:46.576Z,604.9
2022-09-03T08:39:49.135Z,605
2022-09-03T08:40:51.358Z,605.2
2022-09-03T08:41:53.847Z,605.2
2022-09-03T08:42:56.033Z,605.3
2022-09-03T08:45:04.229Z,605.3
2022-09-03T08:46:06.674Z,605.2
2022-09-03T08:47:08.602Z,605.1
2022-09-03T08:48:11.075Z,605.5
2022-09-03T08:49:12.996Z,605.6
2022-09-03T08:50:15.463Z,605.4
2022-09-03T08:51:17.939Z,605.5
2022-09-03T08:52:20.276Z,605.5
2022-09-03T08:53:22.776Z,605.7
2022-09-03T08:54:25.254Z,605.7
2022-09-03T08:55:27.760Z,605.7
2022-09-03T08:56:29.978Z,606
2022-09-03T08:57:32.458Z,605.8
2022-09-03T08:58:34.935Z,606
2022-09-03T08:59:37.415Z,606
2022-09-03T09:00:39.620Z,605.4
2022-09-03T09:01:43.059Z,605.8
2022-09-03T09:02:46.162Z,605.5
2022-09-03T09:03:48.366Z,605.2
2022-09-03T09:04:50.806Z,605.3
2022-09-03T09:05:52.990Z,605.5
2022-09-03T09:06:55.200Z,605.3
2022-09-03T09:07:57.139Z,605
2022-09-03T09:08:59.353Z,605.4
2022-09-03T09:10:01.844Z,605.7
2022-09-03T09:11:04.316Z,605.8
2022-09-03T09:12:07.851Z,605.9
2022-09-03T09:13:10.047Z,606.1
2022-09-03T09:14:12.278Z,605.9
2022-09-03T09:15:14.764Z,606.4
2022-09-03T09:16:17.606Z,606.5
2022-09-03T09:17:20.132Z,606.7
2022-09-03T09:18:22.729Z,606.9
2022-09-03T09:19:25.226Z,607
2022-09-03T09:20:27.727Z,607.4
2022-09-03T09:21:30.211Z,607.5
2022-09-03T09:22:32.417Z,607.2
2022-09-03T09:23:34.900Z,606.8
2022-09-03T09:24:37.141Z,606.9
2022-09-03T09:25:39.329Z,606.9
2022-09-03T09:26:41.823Z,607
2022-09-03T09:27:44.027Z,607
2022-09-03T09:28:45.994Z,606.9
2022-09-03T09:29:51.814Z,607.2
2022-09-03T09:30:55.952Z,607.6
2022-09-03T09:31:58.437Z,607.4
2022-09-03T09:33:00.931Z,607.2
2022-09-03T09:34:03.397Z,606.8
2022-09-03T09:35:05.877Z,607.1
2022-09-03T09:36:08.358Z,606.9
2022-09-03T09:37:10.887Z,607.3
2022-09-03T09:39:20.096Z,607.1
2022-09-03T09:40:22.050Z,607.1
2022-09-03T09:42:29.516Z,607
2022-09-03T09:43:31.438Z,607
2022-09-03T09:44:33.917Z,607.1
2022-09-03T09:45:36.102Z,607.6
2022-09-03T09:46:39.551Z,607.6
2022-09-03T09:47:41.803Z,607.6
2022-09-03T09:48:44.295Z,607.6
2022-09-03T09:49:46.506Z,607.6
2022-09-03T09:50:48.715Z,608
2022-09-03T09:51:50.928Z,608.1
2022-09-03T09:53:59.427Z,607.8
2022-09-03T09:55:01.616Z,607.9
2022-09-03T09:56:04.102Z,607.9
2022-09-03T09:57:06.317Z,607.6
2022-09-03T09:59:13.805Z,607.5
2022-09-03T10:00:15.733Z,607.3
2022-09-03T10:01:17.868Z,607.6
2022-09-03T10:03:25.097Z,607.5
2022-09-03T10:05:32.581Z,607.4
2022-09-03T10:06:34.782Z,607.7
2022-09-03T10:07:37.270Z,607.4
2022-09-03T10:08:39.769Z,608.1
2022-09-03T10:09:42.287Z,607.7
2022-09-03T10:10:44.492Z,607.7
2022-09-03T10:11:46.706Z,608
2022-09-03T10:12:48.393Z,608.1
2022-09-03T10:13:50.313Z,607.9
2022-09-03T10:14:52.794Z,608
2022-09-03T10:15:55.608Z,608
2022-09-03T10:16:58.086Z,608.3
2022-09-03T10:18:00.301Z,608.3
2022-09-03T10:19:02.476Z,608.1
2022-09-03T10:20:04.734Z,608.3
2022-09-03T10:21:07.204Z,608
2022-09-03T10:22:09.679Z,608.1
2022-09-03T10:23:11.604Z,607.8
2022-09-03T10:24:14.085Z,607.9
2022-09-03T10:25:16.604Z,608
2022-09-03T10:26:18.532Z,607.6
2022-09-03T10:27:21.020Z,607.4
2022-09-03T10:28:23.498Z,607.6
2022-09-03T10:29:25.968Z,607.7
2022-09-03T10:30:28.474Z,607.6
2022-09-03T10:31:31.480Z,607.7
2022-09-03T10:33:38.425Z,607.9
2022-09-03T10:34:40.899Z,607.9
2022-09-03T10:35:43.517Z,608.1
2022-09-03T10:36:45.711Z,608.6
2022-09-03T10:37:47.916Z,608.1
2022-09-03T10:38:50.379Z,608.5
2022-09-03T10:39:54.700Z,608.8
2022-09-03T10:40:57.198Z,608.4
2022-09-03T10:41:59.420Z,608.9
2022-09-03T10:43:01.936Z,609.1
2022-09-03T10:44:04.412Z,609
2022-09-03T10:45:06.885Z,609.3
2022-09-03T10:46:09.470Z,609.1
2022-09-03T10:47:11.990Z,609.3
2022-09-03T10:48:14.459Z,609.3
2022-09-03T10:49:16.672Z,609.2
2022-09-03T10:50:19.927Z,609.5
2022-09-03T10:51:22.130Z,609.5
2022-09-03T10:52:24.315Z,609.7
2022-09-03T10:53:26.510Z,609.9
2022-09-03T10:54:28.986Z,609.4
2022-09-03T10:55:31.471Z,608.9
2022-09-03T10:56:33.689Z,608.6
2022-09-03T10:57:36.159Z,608.5
2022-09-03T10:58:38.361Z,609.1
2022-09-03T10:59:40.585Z,609.2
2022-09-03T11:00:42.780Z,609.4
2022-09-03T11:01:45.737Z,609.2
2022-09-03T11:02:48.804Z,609.6
2022-09-03T11:03:51.298Z,609.6
2022-09-03T11:04:53.471Z,609.6
2022-09-03T11:05:55.946Z,609.3
2022-09-03T11:06:58.148Z,609.5
2022-09-03T11:08:00.392Z,610.1
2022-09-03T11:10:07.580Z,610.5
2022-09-03T11:11:09.784Z,610.3
2022-09-03T11:12:12.270Z,610.4
2022-09-03T11:13:14.734Z,610.9
2022-09-03T11:14:17.208Z,610.7
2022-09-03T11:15:19.411Z,610.7
2022-09-03T11:16:22.520Z,610.9
2022-09-03T11:17:24.744Z,611
2022-09-03T11:18:27.519Z,611.2
2022-09-03T11:19:29.987Z,611
2022-09-03T11:20:32.461Z,611.4
2022-09-03T11:21:34.934Z,611.5
2022-09-03T11:22:37.134Z,611.5
2022-09-03T11:23:39.627Z,611.5
2022-09-03T11:24:43.226Z,611.2
2022-09-03T11:25:45.823Z,611.2
2022-09-03T11:26:48.048Z,610.8
2022-09-03T11:28:56.007Z,611.6
2022-09-03T11:29:58.214Z,611.4
2022-09-03T11:31:01.097Z,610.9
2022-09-03T11:32:03.295Z,611.3
2022-09-03T11:33:05.769Z,611
2022-09-03T11:34:10.676Z,611
2022-09-03T11:35:12.879Z,611.6
2022-09-03T11:36:16.525Z,611.7
2022-09-03T11:37:18.803Z,611.7
2022-09-03T11:38:21.508Z,611.7
2022-09-03T11:39:23.396Z,611.4
2022-09-03T11:40:25.915Z,611.5
2022-09-03T11:41:28.147Z,611.8
2022-09-03T11:42:30.347Z,611.8
2022-09-03T11:43:32.847Z,612.4
2022-09-03T11:44:35.317Z,612.5
2022-09-03T11:45:37.525Z,612.7
2022-09-03T11:46:39.903Z,612.8
2022-09-03T11:47:42.137Z,613.2
2022-09-03T11:48:44.076Z,613.3
2022-09-03T11:49:46.019Z,613.1
2022-09-03T11:50:47.694Z,613.6
2022-09-03T11:51:50.426Z,613.9
2022-09-03T11:52:53.074Z,613.8
2022-09-03T11:53:55.557Z,614.1
2022-09-03T11:54:58.838Z,613.6
2022-09-03T11:56:05.486Z,613.5
2022-09-03T11:57:07.738Z,613.7
2022-09-03T11:58:10.230Z,613.8
2022-09-03T11:59:12.445Z,613.7
2022-09-03T12:00:15.146Z,613.7
2022-09-03T12:01:18.384Z,613.4
2022-09-03T12:02:21.173Z,613.7
2022-09-03T12:03:23.586Z,613.6
2022-09-03T12:04:26.586Z,613.9
2022-09-03T12:05:28.512Z,614.3
2022-09-03T12:06:30.994Z,614.2
2022-09-03T12:07:33.504Z,614.3
2022-09-03T12:08:35.707Z,614.4
2022-09-03T12:09:38.183Z,614.3
2022-09-03T12:10:42.182Z,613.9
2022-09-03T12:11:44.647Z,614.2
2022-09-03T12:12:46.550Z,614.2
2022-09-03T12:13:49.039Z,614.1
2022-09-03T12:14:51.247Z,614.2
2022-09-03T12:15:53.464Z,613.9
2022-09-03T12:16:55.948Z,613.5
2022-09-03T12:17:58.426Z,613.7
2022-09-03T12:19:00.890Z,613.8
2022-09-03T12:20:02.532Z,613.8
2022-09-03T12:21:04.751Z,613.6
2022-09-03T12:22:06.703Z,613.9
2022-09-03T12:23:08.635Z,614
2022-09-03T12:24:10.568Z,614.1
2022-09-03T12:25:14.111Z,614.5
2022-09-03T12:26:16.333Z,614.2
2022-09-03T12:27:18.818Z,614.4
2022-09-03T12:28:20.765Z,614.5
2022-09-03T12:30:29.440Z,614.8
2022-09-03T12:31:31.657Z,614.9
2022-09-03T12:32:34.129Z,614.6
2022-09-03T12:33:37.401Z,614.9
2022-09-03T12:34:39.307Z,614.7
2022-09-03T12:36:46.790Z,614.9
2022-09-03T12:42:09.252Z,615.1
2022-09-03T12:44:16.720Z,615
2022-09-03T12:45:18.623Z,614.9
2022-09-03T12:48:33.363Z,614.7
2022-09-03T12:49:35.556Z,615
2022-09-03T12:52:48.032Z,615.7
2022-09-03T12:53:51.121Z,616.1
2022-09-03T12:54:53.597Z,616.1
2022-09-03T12:55:55.794Z,616.3
2022-09-03T12:56:58.275Z,616.8
2022-09-03T12:59:05.191Z,617.3
2022-09-03T13:00:07.395Z,617.1
2022-09-03T13:01:10.771Z,616.9
2022-09-03T13:02:13.967Z,617.2
2022-09-03T13:03:16.614Z,616.9
2022-09-03T13:04:19.152Z,618.1
2022-09-03T13:05:22.095Z,617.7
2022-09-03T13:06:24.786Z,617.8
2022-09-03T13:07:27.001Z,617.8
2022-09-03T13:08:29.481Z,617.9
2022-09-03T13:09:31.731Z,618
2022-09-03T13:10:34.204Z,617.8
2022-09-03T13:11:36.675Z,617.6
2022-09-03T13:12:39.170Z,617.8
2022-09-03T13:13:41.813Z,617.4
2022-09-03T13:14:44.024Z,617.4
2022-09-03T13:15:46.500Z,617.3
2022-09-03T13:16:49.018Z,617.2
2022-09-03T13:17:51.241Z,617.5
2022-09-03T13:18:53.743Z,616.7
2022-09-03T13:19:56.226Z,616.6
2022-09-03T13:20:58.695Z,616.1
2022-09-03T13:22:00.959Z,616.4
2022-09-03T13:23:03.427Z,616.9
2022-09-03T13:24:05.638Z,616.2
2022-09-03T13:25:09.127Z,616.8
2022-09-03T13:26:11.314Z,616.8
2022-09-03T13:27:13.242Z,616.9
2022-09-03T13:28:15.724Z,616.5
2022-09-03T13:29:18.200Z,615.8
2022-09-03T13:30:20.670Z,616
2022-09-03T13:31:23.435Z,615.3
2022-09-03T13:32:26.863Z,615.3
2022-09-03T13:33:31.349Z,615.2
2022-09-03T13:34:33.832Z,614.7
2022-09-03T13:35:36.337Z,614.7
2022-09-03T13:36:38.551Z,614.9
2022-09-03T13:37:40.476Z,614.5
2022-09-03T13:38:42.694Z,615.1
2022-09-03T13:39:45.553Z,615.4
2022-09-03T13:40:47.814Z,615.5
2022-09-03T13:41:50.291Z,615.3
2022-09-03T13:43:57.767Z,615.7
2022-09-03T13:45:00.243Z,615.5
2022-09-03T13:46:02.927Z,615.5
2022-09-03T13:47:05.154Z,616.1
2022-09-03T13:48:07.366Z,615.6
2022-09-03T13:49:09.852Z,615.5
2022-09-03T13:50:12.081Z,615.7
2022-09-03T13:51:13.705Z,615.4
2022-09-03T13:52:15.639Z,615.4
2022-09-03T13:53:18.039Z,615.6
2022-09-03T13:55:25.516Z,615.2
2022-09-03T13:56:27.696Z,615.3
2022-09-03T13:57:30.553Z,615.3
2022-09-03T13:58:34.354Z,615.4
2022-09-03T13:59:38.681Z,615.1
2022-09-03T14:00:40.729Z,615
2022-09-03T14:01:43.329Z,614.8
2022-09-03T14:02:46.688Z,614.4
2022-09-03T14:03:50.932Z,614.2
2022-09-03T14:04:52.892Z,613.5
2022-09-03T14:05:55.429Z,613.6
2022-09-03T14:06:57.909Z,613.3
2022-09-03T14:08:00.395Z,613.6
2022-09-03T14:09:02.592Z,613
2022-09-03T14:10:05.081Z,612.2
2022-09-03T14:11:07.736Z,611.2
2022-09-03T14:13:15.355Z,609
2022-09-03T14:14:17.876Z,606.9
2022-09-03T14:15:20.358Z,606.1
2022-09-03T14:16:22.903Z,605.3
2022-09-03T14:17:25.122Z,603.5
2022-09-03T14:18:27.590Z,599.6
2022-09-03T14:19:30.074Z,597.3
2022-09-03T14:20:32.557Z,597.1
2022-09-03T14:21:34.753Z,597.3
2022-09-03T14:22:36.390Z,596.5
2022-09-03T14:23:38.864Z,595.5